Time;durP1;ratioP1;P1;durP2;ratioP2;P2;SDS_P1;SDS_P2;PMS_P1;PMS_P2;Temp;Humidity;BMP_temperature;BMP_pressure;BME280_temperature;BME280_humidity;BME280_pressure;Samples;Min_cycle;Max_cycle;Signal;HPM_P1;HPM_P2
2023/07/25 00:00:06;;;;;;;6.32;3.42;;;;;;;;;;4977831;28;20054;-78
2023/07/25 00:02:32;;;;;;;5.37;3.13;;;;;;;;;;4979852;28;20031;-78
2023/07/25 00:04:57;;;;;;;5.97;3.15;;;;;;;;;;4965064;28;20303;-78
2023/07/25 00:07:22;;;;;;;7.28;3.38;;;;;;;;;;4978503;28;20433;-77
2023/07/25 00:09:48;;;;;;;4.85;2.88;;;;;;;;;;4983035;28;20037;-77
2023/07/25 00:12:14;;;;;;;5.55;3.35;;;;;;;;;;4984885;28;20030;-77
2023/07/25 00:14:39;;;;;;;5.35;3.40;;;;;;;;;;4962577;28;20097;-77
2023/07/25 00:17:04;;;;;;;6.53;3.25;;;;;;;;;;4994554;28;20046;-78
2023/07/25 00:19:30;;;;;;;6.90;3.53;;;;;;;;;;4996134;28;20448;-78
2023/07/25 00:21:55;;;;;;;5.45;3.40;;;;;;;;;;4996164;28;20125;-77
2023/07/25 00:24:20;;;;;;;5.50;3.05;;;;;;;;;;4982600;28;20034;-77
2023/07/25 00:26:46;;;;;;;7.53;3.28;;;;;;;;;;4999333;28;20026;-77
2023/07/25 00:29:11;;;;;;;6.43;3.00;;;;;;;;;;4984310;28;20049;-77
2023/07/25 00:31:36;;;;;;;4.70;2.97;;;;;;;;;;4978571;28;20041;-77
2023/07/25 00:34:03;;;;;;;5.55;3.17;;;;;;;;;;4966952;28;20044;-77
2023/07/25 00:36:29;;;;;;;4.78;3.03;;;;;;;;;;4979684;28;20617;-75
2023/07/25 00:38:54;;;;;;;4.95;3.33;;;;;;;;;;5000486;28;20033;-75
2023/07/25 00:41:19;;;;;;;6.72;3.03;;;;;;;;;;4983529;28;20501;-76
2023/07/25 00:43:45;;;;;;;6.43;3.40;;;;;;;;;;4995992;28;20763;-75
2023/07/25 00:46:10;;;;;;;4.88;3.30;;;;;;;;;;4981205;28;20066;-78
2023/07/25 00:48:35;;;;;;;4.60;3.28;;;;;;;;;;4979814;28;20490;-77
2023/07/25 00:51:01;;;;;;;5.20;3.38;;;;;;;;;;4979904;28;20095;-75
2023/07/25 00:53:26;;;;;;;4.32;2.75;;;;;;;;;;4994764;28;20049;-75
2023/07/25 00:55:52;;;;;;;5.28;3.35;;;;;;;;;;4961564;28;20038;-75
2023/07/25 00:58:17;;;;;;;5.13;3.55;;;;;;;;;;4980476;28;20121;-75
2023/07/25 01:00:44;;;;;;;6.53;3.40;;;;;;;;;;4968240;28;20397;-75
2023/07/25 01:03:10;;;;;;;7.55;3.75;;;;;;;;;;4981098;28;20560;-75
2023/07/25 01:05:39;;;;;;;5.70;3.40;;;;;;;;;;4979003;28;20104;-77
2023/07/25 01:08:05;;;;;;;6.05;3.63;;;;;;;;;;4982523;28;20136;-75
2023/07/25 01:10:32;;;;;;;5.75;3.75;;;;;;;;;;4972248;28;20121;-76
2023/07/25 01:12:57;;;;;;;5.63;3.63;;;;;;;;;;4981586;28;20410;-75
2023/07/25 01:15:23;;;;;;;7.50;3.80;;;;;;;;;;4994082;28;20065;-75
2023/07/25 01:17:49;;;;;;;5.22;3.78;;;;;;;;;;4975408;28;20539;-75
2023/07/25 01:20:15;;;;;;;7.03;3.58;;;;;;;;;;4957497;28;20491;-76
2023/07/25 01:22:40;;;;;;;5.85;3.72;;;;;;;;;;4952437;28;20398;-78
2023/07/25 01:25:07;;;;;;;9.25;4.38;;;;;;;;;;4967118;28;20383;-75
2023/07/25 01:27:32;;;;;;;5.93;3.95;;;;;;;;;;4967699;28;20042;-75
2023/07/25 01:29:58;;;;;;;6.00;3.75;;;;;;;;;;4960305;28;20455;-77
2023/07/25 01:32:23;;;;;;;5.70;3.85;;;;;;;;;;4975482;28;20408;-76
2023/07/25 01:34:48;;;;;;;6.47;4.10;;;;;;;;;;4975855;28;20505;-74
2023/07/25 01:37:15;;;;;;;6.72;3.97;;;;;;;;;;4945096;28;20446;-75
2023/07/25 01:39:42;;;;;;;7.43;4.00;;;;;;;;;;4964272;28;20031;-75
2023/07/25 01:42:08;;;;;;;6.90;4.80;;;;;;;;;;4961705;28;20034;-75
2023/07/25 01:44:33;;;;;;;7.82;4.40;;;;;;;;;;4960885;28;20042;-75
2023/07/25 01:46:58;;;;;;;7.07;4.00;;;;;;;;;;4945385;28;20157;-79
2023/07/25 01:49:24;;;;;;;7.28;4.75;;;;;;;;;;4967444;28;20093;-78
2023/07/25 01:51:49;;;;;;;7.50;4.75;;;;;;;;;;4956698;28;20038;-74
2023/07/25 01:54:16;;;;;;;7.15;4.55;;;;;;;;;;4943659;28;20053;-75
2023/07/25 01:56:42;;;;;;;7.70;4.95;;;;;;;;;;4959639;28;20039;-75
2023/07/25 01:59:07;;;;;;;6.97;5.00;;;;;;;;;;4973316;28;20043;-75
2023/07/25 02:01:33;;;;;;;8.57;5.10;;;;;;;;;;4961091;28;20030;-76
2023/07/25 02:03:58;;;;;;;8.80;5.15;;;;;;;;;;4958651;28;20508;-75
2023/07/25 02:06:23;;;;;;;9.40;5.18;;;;;;;;;;4965733;28;20038;-78
2023/07/25 02:08:49;;;;;;;8.98;5.68;;;;;;;;;;4960042;28;20034;-78
2023/07/25 02:11:14;;;;;;;9.50;5.30;;;;;;;;;;4975048;28;20030;-75
2023/07/25 02:13:40;;;;;;;8.00;4.65;;;;;;;;;;4952571;28;20046;-77
2023/07/25 02:16:05;;;;;;;7.78;5.00;;;;;;;;;;4974138;28;20129;-78
2023/07/25 02:18:30;;;;;;;8.90;5.30;;;;;;;;;;4977949;28;20046;-76
2023/07/25 02:20:56;;;;;;;7.47;5.65;;;;;;;;;;4958237;28;20035;-77
2023/07/25 02:23:21;;;;;;;8.05;5.18;;;;;;;;;;4967179;28;20038;-74
2023/07/25 02:25:47;;;;;;;9.48;5.68;;;;;;;;;;4956145;28;20040;-75
2023/07/25 02:28:13;;;;;;;9.13;6.22;;;;;;;;;;4962045;28;20031;-77
2023/07/25 02:30:38;;;;;;;7.65;5.40;;;;;;;;;;4967589;28;20035;-77
2023/07/25 02:33:03;;;;;;;7.20;5.30;;;;;;;;;;4964930;28;20041;-77
2023/07/25 02:35:29;;;;;;;9.13;5.72;;;;;;;;;;4975132;28;20038;-77
2023/07/25 02:37:54;;;;;;;10.10;5.82;;;;;;;;;;4957350;28;20050;-77
2023/07/25 02:40:19;;;;;;;8.98;5.40;;;;;;;;;;4975519;28;20069;-77
2023/07/25 02:42:45;;;;;;;8.95;5.50;;;;;;;;;;4945946;28;20035;-77
2023/07/25 02:45:11;;;;;;;8.70;5.70;;;;;;;;;;4973031;28;20127;-78
2023/07/25 02:47:36;;;;;;;10.27;5.35;;;;;;;;;;4975505;28;20035;-77
2023/07/25 02:50:01;;;;;;;8.68;5.35;;;;;;;;;;4974143;28;20509;-77
2023/07/25 02:52:27;;;;;;;8.93;5.53;;;;;;;;;;4974759;28;20042;-77
2023/07/25 02:54:52;;;;;;;11.73;5.45;;;;;;;;;;4975306;28;20390;-77
2023/07/25 02:57:17;;;;;;;8.82;4.70;;;;;;;;;;4960112;28;20343;-77
2023/07/25 02:59:43;;;;;;;7.97;5.10;;;;;;;;;;4958964;28;20811;-77
2023/07/25 03:02:10;;;;;;;7.20;5.10;;;;;;;;;;4958222;28;20491;-77
2023/07/25 03:04:35;;;;;;;8.63;5.35;;;;;;;;;;4974830;28;20089;-77
2023/07/25 03:07:01;;;;;;;9.13;5.50;;;;;;;;;;4961353;28;20437;-77
2023/07/25 03:09:26;;;;;;;10.63;4.90;;;;;;;;;;4973340;28;20062;-78
2023/07/25 03:11:51;;;;;;;8.70;5.57;;;;;;;;;;4973945;28;20035;-77
2023/07/25 03:14:16;;;;;;;8.32;4.95;;;;;;;;;;4960611;28;20046;-77
2023/07/25 03:16:42;;;;;;;8.77;4.47;;;;;;;;;;4973782;28;20061;-77
2023/07/25 03:19:07;;;;;;;8.98;4.60;;;;;;;;;;4967460;28;20046;-77
2023/07/25 03:21:33;;;;;;;9.68;5.50;;;;;;;;;;4981038;28;20037;-77
2023/07/25 03:23:58;;;;;;;8.27;4.82;;;;;;;;;;4978165;28;20045;-77
2023/07/25 03:26:23;;;;;;;7.20;4.82;;;;;;;;;;4976302;28;20035;-77
2023/07/25 03:28:49;;;;;;;10.30;4.85;;;;;;;;;;4971397;28;20486;-77
2023/07/25 03:31:14;;;;;;;8.00;4.82;;;;;;;;;;4982528;28;20117;-77
2023/07/25 03:33:39;;;;;;;8.32;4.90;;;;;;;;;;4980773;28;20038;-77
2023/07/25 03:36:07;;;;;;;9.73;4.85;;;;;;;;;;4957250;28;20031;-75
2023/07/25 03:38:32;;;;;;;7.55;4.32;;;;;;;;;;4983110;28;20034;-76
2023/07/25 03:40:58;;;;;;;10.10;4.97;;;;;;;;;;4980697;28;20537;-76
2023/07/25 03:43:24;;;;;;;8.23;5.10;;;;;;;;;;4993800;28;20045;-76
2023/07/25 03:45:49;;;;;;;8.82;4.82;;;;;;;;;;4978934;28;20034;-76
2023/07/25 03:48:14;;;;;;;8.60;4.88;;;;;;;;;;4994065;28;20057;-75
2023/07/25 03:50:40;;;;;;;9.60;5.30;;;;;;;;;;4978440;28;20031;-75
2023/07/25 03:53:05;;;;;;;11.02;5.30;;;;;;;;;;4978547;28;20050;-76
2023/07/25 03:55:31;;;;;;;9.05;4.68;;;;;;;;;;4978471;28;20038;-76
2023/07/25 03:57:56;;;;;;;8.57;4.93;;;;;;;;;;4975352;28;20039;-76
2023/07/25 04:00:22;;;;;;;9.00;4.80;;;;;;;;;;4976394;28;20058;-76
2023/07/25 04:02:47;;;;;;;8.95;5.03;;;;;;;;;;4976122;28;20043;-76
2023/07/25 04:05:14;;;;;;;9.23;4.72;;;;;;;;;;4995329;28;20034;-76
2023/07/25 04:07:40;;;;;;;8.57;4.40;;;;;;;;;;4961321;28;20073;-76
2023/07/25 04:10:06;;;;;;;6.75;4.78;;;;;;;;;;4992659;28;20074;-76
2023/07/25 04:12:31;;;;;;;8.75;4.35;;;;;;;;;;4991111;28;20503;-76
2023/07/25 04:14:58;;;;;;;9.85;4.60;;;;;;;;;;4978278;28;20046;-76
2023/07/25 04:17:23;;;;;;;7.53;4.65;;;;;;;;;;4962387;28;20042;-76
2023/07/25 04:19:49;;;;;;;11.65;5.13;;;;;;;;;;4959521;28;20425;-76
2023/07/25 04:22:14;;;;;;;9.63;4.55;;;;;;;;;;4977886;28;20038;-76
2023/07/25 04:24:39;;;;;;;9.25;4.47;;;;;;;;;;4978748;28;20363;-76
2023/07/25 04:27:05;;;;;;;10.48;5.13;;;;;;;;;;4976540;28;20035;-76
2023/07/25 04:29:30;;;;;;;8.05;4.65;;;;;;;;;;4961293;28;20039;-76
2023/07/25 04:31:56;;;;;;;9.52;4.50;;;;;;;;;;4977130;28;20487;-76
2023/07/25 04:34:21;;;;;;;9.73;4.68;;;;;;;;;;4958040;28;20031;-76
2023/07/25 04:36:47;;;;;;;9.15;4.30;;;;;;;;;;4958806;28;20996;-76
2023/07/25 04:39:12;;;;;;;10.18;4.40;;;;;;;;;;4959843;28;20491;-76
2023/07/25 04:41:37;;;;;;;7.45;4.10;;;;;;;;;;4952639;28;20394;-76
2023/07/25 04:44:03;;;;;;;9.05;4.80;;;;;;;;;;4964627;28;20031;-76
2023/07/25 04:46:30;;;;;;;11.10;4.45;;;;;;;;;;4964008;28;20038;-76
2023/07/25 04:48:56;;;;;;;9.90;4.77;;;;;;;;;;4974899;28;20035;-76
2023/07/25 04:51:21;;;;;;;8.57;4.13;;;;;;;;;;4949101;28;20538;-76
2023/07/25 04:53:46;;;;;;;11.20;3.70;;;;;;;;;;4975676;28;20118;-76
2023/07/25 04:56:12;;;;;;;8.48;3.72;;;;;;;;;;4966254;28;20038;-76
2023/07/25 04:58:41;;;;;;;10.55;4.38;;;;;;;;;;4975341;28;20034;-76
2023/07/25 05:01:07;;;;;;;10.57;3.92;;;;;;;;;;4975342;28;20041;-76
2023/07/25 05:03:32;;;;;;;10.25;4.18;;;;;;;;;;4977774;28;20058;-76
2023/07/25 05:05:58;;;;;;;7.70;3.45;;;;;;;;;;4959642;28;20097;-76
2023/07/25 05:08:23;;;;;;;9.70;4.07;;;;;;;;;;4963597;28;20077;-76
2023/07/25 05:10:50;;;;;;;9.50;4.07;;;;;;;;;;4961783;28;20486;-76
2023/07/25 05:13:15;;;;;;;8.23;3.43;;;;;;;;;;4947855;28;20364;-76
2023/07/25 05:15:41;;;;;;;9.40;3.67;;;;;;;;;;4977786;28;20069;-76
2023/07/25 05:18:06;;;;;;;7.65;3.55;;;;;;;;;;4981112;28;20054;-76
2023/07/25 05:20:31;;;;;;;8.25;3.58;;;;;;;;;;4975609;28;20398;-77
2023/07/25 05:22:57;;;;;;;10.93;3.58;;;;;;;;;;4974455;28;20121;-76
2023/07/25 05:25:22;;;;;;;6.50;3.25;;;;;;;;;;4965813;28;20073;-77
2023/07/25 05:27:48;;;;;;;7.80;3.50;;;;;;;;;;4974478;28;20038;-76
2023/07/25 05:30:13;;;;;;;8.05;3.42;;;;;;;;;;4949259;28;20037;-76
2023/07/25 05:32:39;;;;;;;11.05;3.72;;;;;;;;;;4976636;28;20038;-77
2023/07/25 05:35:05;;;;;;;8.30;3.10;;;;;;;;;;4969112;28;20482;-77
2023/07/25 05:37:37;;;;;;;5.93;3.05;;;;;;;;;;4962127;28;20042;-77
2023/07/25 05:40:03;;;;;;;6.78;2.90;;;;;;;;;;4976544;28;20596;-76
2023/07/25 05:42:28;;;;;;;5.57;3.13;;;;;;;;;;4979726;28;20031;-77
2023/07/25 05:44:54;;;;;;;8.90;3.42;;;;;;;;;;4991732;28;20058;-76
2023/07/25 05:47:19;;;;;;;9.52;2.80;;;;;;;;;;4991512;28;20073;-77
2023/07/25 05:49:44;;;;;;;8.73;2.53;;;;;;;;;;4976001;28;20136;-77
2023/07/25 05:52:10;;;;;;;7.72;2.90;;;;;;;;;;4974351;28;20034;-77
2023/07/25 05:54:35;;;;;;;9.38;2.70;;;;;;;;;;4975015;28;20034;-76
2023/07/25 05:57:01;;;;;;;8.57;2.53;;;;;;;;;;4994333;28;20030;-77
2023/07/25 05:59:26;;;;;;;5.00;2.33;;;;;;;;;;4976854;28;20040;-76
2023/07/25 06:01:52;;;;;;;6.45;2.38;;;;;;;;;;4981658;28;20397;-76
2023/07/25 06:04:17;;;;;;;6.75;2.13;;;;;;;;;;4979878;28;20427;-76
2023/07/25 06:06:43;;;;;;;4.78;2.20;;;;;;;;;;4977407;28;20022;-77
2023/07/25 06:09:08;;;;;;;7.47;2.40;;;;;;;;;;4978250;28;20082;-77
2023/07/25 06:11:35;;;;;;;10.73;2.47;;;;;;;;;;4973252;28;20145;-77
2023/07/25 06:14:00;;;;;;;4.85;2.00;;;;;;;;;;4975133;28;20043;-77
2023/07/25 06:16:26;;;;;;;9.25;2.95;;;;;;;;;;4977926;28;20056;-76
2023/07/25 06:18:51;;;;;;;8.43;2.60;;;;;;;;;;4948091;28;20038;-77
2023/07/25 06:21:16;;;;;;;7.00;2.40;;;;;;;;;;4947880;28;20842;-77
2023/07/25 06:23:42;;;;;;;7.88;2.53;;;;;;;;;;4974911;28;20043;-76
2023/07/25 06:26:07;;;;;;;5.78;2.38;;;;;;;;;;4973909;28;20122;-77
2023/07/25 06:28:32;;;;;;;5.68;2.17;;;;;;;;;;4957541;28;20064;-77
2023/07/25 06:30:58;;;;;;;7.35;2.30;;;;;;;;;;4973547;28;20034;-77
2023/07/25 06:33:23;;;;;;;5.10;2.03;;;;;;;;;;4958947;28;20089;-77
2023/07/25 06:35:49;;;;;;;6.65;2.03;;;;;;;;;;4968415;28;20039;-76
2023/07/25 06:38:14;;;;;;;7.07;2.50;;;;;;;;;;4957974;28;20039;-77
2023/07/25 06:40:39;;;;;;;11.90;1.70;;;;;;;;;;4959038;28;20454;-77
2023/07/25 06:43:05;;;;;;;9.07;2.47;;;;;;;;;;4976733;28;20426;-76
2023/07/25 06:45:30;;;;;;;6.80;1.90;;;;;;;;;;4947879;28;20402;-77
2023/07/25 06:47:55;;;;;;;7.85;1.98;;;;;;;;;;4972686;28;20731;-77
2023/07/25 06:50:21;;;;;;;3.88;1.60;;;;;;;;;;4942226;28;20045;-77
2023/07/25 06:52:46;;;;;;;5.43;1.60;;;;;;;;;;4946422;28;20117;-77
2023/07/25 06:55:12;;;;;;;6.13;1.60;;;;;;;;;;4958009;28;20042;-77
2023/07/25 06:57:37;;;;;;;3.97;1.50;;;;;;;;;;4945131;28;20073;-77
2023/07/25 07:00:03;;;;;;;4.82;1.50;;;;;;;;;;4957836;28;20066;-77
2023/07/25 07:02:29;;;;;;;6.90;1.50;;;;;;;;;;4958026;28;20525;-76
2023/07/25 07:04:56;;;;;;;4.55;1.27;;;;;;;;;;4977679;28;20043;-76
2023/07/25 07:07:21;;;;;;;4.10;1.30;;;;;;;;;;4964502;28;20050;-77
2023/07/25 07:09:47;;;;;;;4.85;1.40;;;;;;;;;;4961068;28;20509;-77
2023/07/25 07:12:12;;;;;;;4.88;1.48;;;;;;;;;;4955223;28;20043;-76
2023/07/25 07:14:37;;;;;;;7.10;1.55;;;;;;;;;;4975452;28;20045;-76
2023/07/25 07:17:03;;;;;;;8.90;1.55;;;;;;;;;;4940970;28;20126;-77
2023/07/25 07:19:29;;;;;;;6.43;1.60;;;;;;;;;;4956428;28;20038;-77
2023/07/25 07:21:54;;;;;;;4.10;1.67;;;;;;;;;;4962236;28;20034;-77
2023/07/25 07:24:19;;;;;;;6.10;1.50;;;;;;;;;;4975213;28;20085;-77
2023/07/25 07:26:45;;;;;;;4.43;1.60;;;;;;;;;;4945943;28;20538;-76
2023/07/25 07:29:13;;;;;;;5.35;1.50;;;;;;;;;;4949493;28;20065;-77
2023/07/25 07:31:38;;;;;;;4.38;1.58;;;;;;;;;;4947373;28;20065;-76
2023/07/25 07:34:10;;;;;;;3.85;1.30;;;;;;;;;;4973278;28;20062;-76
2023/07/25 07:36:35;;;;;;;5.22;1.70;;;;;;;;;;4973426;28;20049;-77
2023/07/25 07:39:01;;;;;;;5.20;1.67;;;;;;;;;;4956886;28;20031;-77
2023/07/25 07:41:26;;;;;;;5.25;1.45;;;;;;;;;;4956349;28;20046;-77
2023/07/25 07:43:52;;;;;;;4.90;1.80;;;;;;;;;;4945124;28;20043;-77
2023/07/25 07:46:17;;;;;;;5.32;1.50;;;;;;;;;;4963073;28;20125;-77
2023/07/25 07:48:43;;;;;;;5.28;1.35;;;;;;;;;;4958586;28;20038;-77
2023/07/25 07:51:08;;;;;;;6.80;2.13;;;;;;;;;;4951068;28;20061;-77
2023/07/25 07:53:34;;;;;;;6.35;1.60;;;;;;;;;;4945367;28;20550;-77
2023/07/25 07:56:03;;;;;;;4.30;1.65;;;;;;;;;;4974280;28;20198;-77
2023/07/25 07:58:29;;;;;;;3.45;1.20;;;;;;;;;;4957950;28;20030;-77
2023/07/25 08:00:54;;;;;;;5.50;1.58;;;;;;;;;;4964075;28;20043;-77
2023/07/25 08:03:19;;;;;;;5.80;1.05;;;;;;;;;;4961947;28;20034;-77
2023/07/25 08:05:45;;;;;;;3.00;1.00;;;;;;;;;;4978747;28;20584;-77
2023/07/25 08:08:10;;;;;;;3.75;1.20;;;;;;;;;;4964855;28;20034;-76
2023/07/25 08:10:36;;;;;;;4.22;1.30;;;;;;;;;;4975511;28;20150;-76
2023/07/25 08:13:01;;;;;;;3.40;1.33;;;;;;;;;;4963572;28;20097;-76
2023/07/25 08:15:26;;;;;;;2.90;1.02;;;;;;;;;;4976831;28;20055;-78
2023/07/25 08:17:52;;;;;;;3.35;1.52;;;;;;;;;;4964679;28;20476;-76
2023/07/25 08:20:17;;;;;;;6.90;1.60;;;;;;;;;;4947382;28;20075;-77
2023/07/25 08:22:42;;;;;;;4.55;1.25;;;;;;;;;;4975137;28;20035;-77
2023/07/25 08:25:09;;;;;;;5.28;1.67;;;;;;;;;;4954251;28;20122;-79
2023/07/25 08:27:35;;;;;;;5.07;1.10;;;;;;;;;;4962328;28;20505;-77
2023/07/25 08:30:00;;;;;;;4.65;1.40;;;;;;;;;;4974545;28;20042;-76
2023/07/25 08:32:26;;;;;;;4.97;1.33;;;;;;;;;;4964956;28;20086;-79
2023/07/25 08:34:51;;;;;;;5.50;1.33;;;;;;;;;;4982696;28;20113;-77
2023/07/25 08:37:16;;;;;;;4.00;1.10;;;;;;;;;;4977357;28;20498;-76
2023/07/25 08:39:42;;;;;;;4.43;1.13;;;;;;;;;;4977307;28;20041;-77
2023/07/25 08:42:09;;;;;;;4.93;1.25;;;;;;;;;;4972903;28;20512;-77
2023/07/25 08:44:35;;;;;;;4.30;1.10;;;;;;;;;;4992163;28;20039;-78
2023/07/25 08:47:06;;;;;;;5.63;1.10;;;;;;;;;;4959786;28;20472;-79
2023/07/25 08:49:34;;;;;;;4.30;1.42;;;;;;;;;;4984181;28;20513;-77
2023/07/25 08:52:01;;;;;;;4.45;1.30;;;;;;;;;;4973365;28;20042;-78
2023/07/25 08:54:33;;;;;;;2.83;1.20;;;;;;;;;;4963564;28;20401;-78
2023/07/25 08:57:00;;;;;;;3.60;1.10;;;;;;;;;;4976017;28;20533;-76
2023/07/25 08:59:26;;;;;;;3.15;0.80;;;;;;;;;;4966425;28;20105;-77
2023/07/25 09:01:54;;;;;;;3.85;1.00;;;;;;;;;;4955445;28;20490;-77
2023/07/25 09:04:23;;;;;;;3.75;1.48;;;;;;;;;;4982184;28;20037;-77
2023/07/25 09:06:48;;;;;;;3.78;1.20;;;;;;;;;;4959235;28;20038;-77
2023/07/25 09:09:13;;;;;;;3.38;0.90;;;;;;;;;;4977441;28;20065;-77
2023/07/25 09:11:39;;;;;;;6.68;1.20;;;;;;;;;;4976857;28;20034;-78
2023/07/25 09:14:05;;;;;;;5.07;1.10;;;;;;;;;;4972990;28;20081;-78
2023/07/25 09:16:31;;;;;;;3.13;1.02;;;;;;;;;;4967473;28;20060;-77
2023/07/25 09:18:57;;;;;;;5.25;0.85;;;;;;;;;;4982225;28;20541;-78
2023/07/25 09:21:22;;;;;;;3.78;1.20;;;;;;;;;;4975654;28;20053;-77
2023/07/25 09:23:56;;;;;;;4.75;1.17;;;;;;;;;;4959801;28;20054;-77
2023/07/25 09:26:23;;;;;;;4.47;1.38;;;;;;;;;;4970883;28;20042;-77
2023/07/25 09:28:50;;;;;;;5.72;1.25;;;;;;;;;;4977037;28;20398;-77
2023/07/25 09:31:16;;;;;;;6.57;1.20;;;;;;;;;;4975116;28;20548;-78
2023/07/25 09:33:46;;;;;;;4.13;1.55;;;;;;;;;;4975150;28;20376;-77
2023/07/25 09:36:12;;;;;;;4.25;1.20;;;;;;;;;;4973866;28;20481;-77
2023/07/25 09:38:49;;;;;;;6.43;1.58;;;;;;;;;;4989480;28;20042;-77
2023/07/25 09:41:15;;;;;;;3.72;1.10;;;;;;;;;;4964362;28;20035;-77
2023/07/25 09:43:41;;;;;;;5.35;1.30;;;;;;;;;;4971172;28;20037;-78
2023/07/25 09:46:06;;;;;;;3.33;1.08;;;;;;;;;;4964179;28;20034;-78
2023/07/25 09:48:32;;;;;;;3.25;1.10;;;;;;;;;;4975656;28;20034;-78
2023/07/25 09:51:03;;;;;;;5.63;1.40;;;;;;;;;;4972114;28;20030;-78
2023/07/25 09:53:29;;;;;;;5.97;1.20;;;;;;;;;;4975944;28;20173;-78
2023/07/25 09:55:55;;;;;;;3.50;1.00;;;;;;;;;;4991002;28;20080;-77
2023/07/25 09:58:21;;;;;;;3.90;1.02;;;;;;;;;;4974588;28;20817;-77
2023/07/25 10:00:48;;;;;;;3.17;1.10;;;;;;;;;;4971914;28;20046;-77
2023/07/25 10:03:13;;;;;;;4.25;0.93;;;;;;;;;;4974128;28;20105;-77
2023/07/25 10:05:44;;;;;;;5.35;1.08;;;;;;;;;;4973565;28;20109;-77
2023/07/25 10:08:11;;;;;;;5.45;1.38;;;;;;;;;;4972564;28;20062;-76
2023/07/25 10:10:43;;;;;;;5.00;1.27;;;;;;;;;;4971101;28;20138;-77
2023/07/25 10:13:09;;;;;;;3.45;1.00;;;;;;;;;;4972633;28;20134;-77
2023/07/25 10:15:35;;;;;;;3.25;1.23;;;;;;;;;;4976983;28;20074;-76
2023/07/25 10:18:12;;;;;;;4.57;1.23;;;;;;;;;;4975412;28;20070;-77
2023/07/25 10:20:37;;;;;;;4.40;1.15;;;;;;;;;;4974618;28;20034;-77
2023/07/25 10:23:08;;;;;;;7.32;1.50;;;;;;;;;;4965758;28;20133;-78
2023/07/25 10:25:34;;;;;;;3.53;1.08;;;;;;;;;;4973353;28;20120;-77
2023/07/25 10:28:00;;;;;;;3.70;1.20;;;;;;;;;;4972906;28;20034;-76
2023/07/25 10:30:28;;;;;;;3.95;1.17;;;;;;;;;;4958032;28;20125;-77
2023/07/25 10:32:56;;;;;;;3.88;1.10;;;;;;;;;;4974987;28;20047;-75
2023/07/25 10:35:50;;;;;;;3.55;1.20;;;;;;;;;;4972279;28;20145;-77
2023/07/25 10:38:42;;;;;;;3.88;1.10;;;;;;;;;;4957355;28;20046;-77
2023/07/25 10:41:10;;;;;;;4.50;1.30;;;;;;;;;;4956336;28;20050;-77
2023/07/25 10:43:44;;;;;;;6.47;1.20;;;;;;;;;;4954009;28;20118;-78
2023/07/25 10:46:15;;;;;;;5.32;1.27;;;;;;;;;;4954566;28;20042;-78
2023/07/25 10:48:45;;;;;;;4.43;1.20;;;;;;;;;;4972014;28;20046;-77
2023/07/25 10:51:12;;;;;;;4.63;1.25;;;;;;;;;;4973429;28;20101;-76
2023/07/25 10:53:38;;;;;;;;;;;;;;;;;;4973660;28;20489;-77
2023/07/25 10:56:03;;;;;;;5.93;1.33;;;;;;;;;;4974089;28;19949;-77
2023/07/25 10:58:33;;;;;;;5.90;1.10;;;;;;;;;;4975268;28;20042;-77
2023/07/25 11:00:59;;;;;;;3.17;0.95;;;;;;;;;;4971767;28;20030;-77
2023/07/25 11:03:35;;;;;;;3.05;0.98;;;;;;;;;;4973513;28;20039;-76
2023/07/25 11:06:06;;;;;;;5.10;1.00;;;;;;;;;;4969843;28;20511;-78
2023/07/25 11:08:36;;;;;;;3.80;1.00;;;;;;;;;;4971117;28;20041;-78
2023/07/25 11:11:09;;;;;;;3.40;0.93;;;;;;;;;;4974448;28;20567;-78
2023/07/25 11:13:39;;;;;;;3.17;1.20;;;;;;;;;;4978847;28;20094;-77
2023/07/25 11:16:06;;;;;;;3.28;0.90;;;;;;;;;;4983553;28;21071;-77
2023/07/25 11:18:37;;;;;;;4.97;1.20;;;;;;;;;;4978745;28;20050;-78
2023/07/25 11:21:07;;;;;;;4.78;0.90;;;;;;;;;;4977215;28;20034;-76
2023/07/25 11:23:36;;;;;;;2.80;1.08;;;;;;;;;;4984694;28;20057;-76
2023/07/25 11:26:08;;;;;;;4.00;1.23;;;;;;;;;;4978668;28;21094;-77
2023/07/25 11:28:36;;;;;;;4.85;0.90;;;;;;;;;;4977250;28;20100;-76
2023/07/25 11:31:01;;;;;;;3.83;1.00;;;;;;;;;;4973861;28;20430;-76
2023/07/25 11:33:35;;;;;;;2.90;1.00;;;;;;;;;;4983504;28;20038;-76
2023/07/25 11:36:01;;;;;;;3.53;0.90;;;;;;;;;;4980608;28;20037;-75
2023/07/25 11:38:26;;;;;;;4.93;0.90;;;;;;;;;;4984538;28;20429;-76
2023/07/25 11:40:54;;;;;;;2.17;0.73;;;;;;;;;;4968596;28;20041;-77
2023/07/25 11:43:20;;;;;;;3.00;0.90;;;;;;;;;;4984229;28;20034;-77
2023/07/25 11:45:45;;;;;;;2.35;0.80;;;;;;;;;;4972447;28;20128;-78
2023/07/25 11:48:13;;;;;;;3.95;0.80;;;;;;;;;;4996935;28;20038;-78
2023/07/25 11:50:40;;;;;;;2.05;0.77;;;;;;;;;;4994549;28;20125;-78
2023/07/25 11:53:06;;;;;;;3.97;1.02;;;;;;;;;;4996592;28;20030;-77
2023/07/25 11:55:32;;;;;;;2.30;0.88;;;;;;;;;;4967736;28;20038;-78
2023/07/25 11:58:01;;;;;;;3.33;0.90;;;;;;;;;;4970127;28;20359;-78
2023/07/25 12:00:38;;;;;;;4.60;0.90;;;;;;;;;;4997921;28;20042;-78
2023/07/25 12:03:03;;;;;;;;;;;;;;;;;;4978972;28;20054;-77
2023/07/25 12:05:30;;;;;;;3.47;0.70;;;;;;;;;;4981341;28;19949;-77
2023/07/25 12:08:00;;;;;;;4.75;0.77;;;;;;;;;;4968564;28;20042;-78
2023/07/25 12:10:30;;;;;;;4.22;0.88;;;;;;;;;;4975026;28;20419;-77
2023/07/25 12:12:57;;;;;;;3.45;0.70;;;;;;;;;;4991099;28;20506;-77
2023/07/25 12:15:23;;;;;;;2.75;1.00;;;;;;;;;;4974169;28;20043;-77
2023/07/25 12:17:49;;;;;;;3.95;0.90;;;;;;;;;;4967365;28;20045;-77
2023/07/25 12:20:19;;;;;;;3.42;1.10;;;;;;;;;;4951294;28;20567;-77
2023/07/25 12:22:45;;;;;;;4.80;1.10;;;;;;;;;;4987348;28;20030;-76
2023/07/25 12:25:14;;;;;;;2.70;1.00;;;;;;;;;;4995553;28;20434;-76
2023/07/25 12:27:47;;;;;;;5.75;1.23;;;;;;;;;;4982713;28;20064;-76
2023/07/25 12:30:12;;;;;;;5.95;1.00;;;;;;;;;;4996581;28;20113;-76
2023/07/25 12:32:38;;;;;;;2.85;1.08;;;;;;;;;;4976982;28;20049;-76
2023/07/25 12:35:04;;;;;;;2.25;0.90;;;;;;;;;;4995713;28;20446;-76
2023/07/25 12:37:29;;;;;;;2.95;0.80;;;;;;;;;;4974792;28;20034;-76
2023/07/25 12:39:54;;;;;;;3.25;0.80;;;;;;;;;;4960243;28;20034;-76
2023/07/25 12:42:20;;;;;;;2.38;0.73;;;;;;;;;;4992105;28;20430;-76
2023/07/25 12:44:45;;;;;;;3.75;0.93;;;;;;;;;;4976866;28;20152;-77
2023/07/25 12:47:11;;;;;;;2.03;1.00;;;;;;;;;;4977682;28;20034;-77
2023/07/25 12:49:36;;;;;;;3.17;0.90;;;;;;;;;;4997341;28;20030;-77
2023/07/25 12:52:01;;;;;;;3.72;0.90;;;;;;;;;;4982597;28;20425;-77
2023/07/25 12:54:27;;;;;;;5.47;1.17;;;;;;;;;;4970011;28;20041;-77
2023/07/25 12:56:52;;;;;;;3.63;1.00;;;;;;;;;;4974873;28;20037;-77
2023/07/25 12:59:18;;;;;;;2.72;0.80;;;;;;;;;;4984366;28;20037;-77
2023/07/25 13:01:43;;;;;;;3.80;0.90;;;;;;;;;;4964399;28;20065;-76
2023/07/25 13:04:08;;;;;;;3.33;1.10;;;;;;;;;;4986106;28;20042;-77
2023/07/25 13:06:34;;;;;;;3.35;1.00;;;;;;;;;;4985621;28;20482;-77
2023/07/25 13:09:00;;;;;;;3.95;0.98;;;;;;;;;;4992514;28;20034;-77
2023/07/25 13:11:25;;;;;;;6.13;1.20;;;;;;;;;;4977897;28;20119;-76
2023/07/25 13:13:51;;;;;;;3.33;1.20;;;;;;;;;;4986337;28;20042;-77
2023/07/25 13:16:17;;;;;;;4.88;1.20;;;;;;;;;;4978621;28;20859;-76
2023/07/25 13:18:42;;;;;;;4.40;1.08;;;;;;;;;;4978942;28;20034;-77
2023/07/25 13:21:08;;;;;;;4.13;0.85;;;;;;;;;;4958454;28;20058;-77
2023/07/25 13:23:33;;;;;;;3.25;1.10;;;;;;;;;;4980041;28;20038;-77
2023/07/25 13:25:58;;;;;;;3.78;1.23;;;;;;;;;;4965595;28;20945;-77
2023/07/25 13:28:24;;;;;;;4.53;1.10;;;;;;;;;;4981430;28;20138;-76
2023/07/25 13:30:49;;;;;;;2.95;0.80;;;;;;;;;;4996410;28;20037;-78
2023/07/25 13:33:15;;;;;;;2.63;1.00;;;;;;;;;;4982792;28;20041;-77
2023/07/25 13:35:40;;;;;;;4.75;0.98;;;;;;;;;;4995919;28;20441;-76
2023/07/25 13:38:06;;;;;;;3.08;1.10;;;;;;;;;;4974661;28;20032;-77
2023/07/25 13:40:32;;;;;;;3.38;1.00;;;;;;;;;;4984356;28;20080;-78
2023/07/25 13:42:58;;;;;;;3.88;1.00;;;;;;;;;;4959948;28;20083;-78
2023/07/25 13:45:25;;;;;;;4.15;1.20;;;;;;;;;;4981997;28;20501;-78
2023/07/25 13:47:50;;;;;;;3.70;1.30;;;;;;;;;;4977605;28;20085;-78
2023/07/25 13:50:16;;;;;;;3.88;0.90;;;;;;;;;;4977911;28;20034;-77
2023/07/25 13:52:41;;;;;;;3.08;0.98;;;;;;;;;;4979345;28;20091;-78
2023/07/25 13:55:07;;;;;;;3.30;0.80;;;;;;;;;;4991360;28;20517;-77
2023/07/25 13:57:32;;;;;;;2.92;0.95;;;;;;;;;;4968267;28;20476;-77
2023/07/25 13:59:57;;;;;;;3.72;0.90;;;;;;;;;;4965855;28;20038;-77
2023/07/25 14:02:23;;;;;;;4.30;0.95;;;;;;;;;;4976523;28;20454;-77
2023/07/25 14:04:48;;;;;;;1.98;0.70;;;;;;;;;;4993863;28;20390;-78
2023/07/25 14:07:14;;;;;;;2.88;0.93;;;;;;;;;;4977852;28;20053;-78
2023/07/25 14:09:39;;;;;;;3.38;0.90;;;;;;;;;;4995857;28;20034;-78
2023/07/25 14:12:05;;;;;;;5.45;0.90;;;;;;;;;;4974710;28;20439;-77
2023/07/25 14:14:31;;;;;;;3.05;0.85;;;;;;;;;;4982205;28;20030;-77
2023/07/25 14:16:56;;;;;;;4.32;0.75;;;;;;;;;;4994238;28;20138;-79
2023/07/25 14:19:22;;;;;;;3.88;0.90;;;;;;;;;;4984866;28;20042;-78
2023/07/25 14:21:47;;;;;;;2.63;0.80;;;;;;;;;;4996865;28;20120;-77
2023/07/25 14:24:13;;;;;;;3.75;1.02;;;;;;;;;;4962265;28;20049;-77
2023/07/25 14:26:38;;;;;;;3.55;0.80;;;;;;;;;;4975205;28;20038;-76
2023/07/25 14:29:04;;;;;;;3.75;1.10;;;;;;;;;;4977615;28;20042;-76
2023/07/25 14:31:29;;;;;;;3.90;1.10;;;;;;;;;;4975376;28;20035;-76
2023/07/25 14:33:56;;;;;;;7.53;2.13;;;;;;;;;;4961885;28;20041;-76
2023/07/25 14:36:21;;;;;;;3.65;1.30;;;;;;;;;;4992525;28;20041;-76